createdAt,value
2022-10-10T01:52:13.915Z,9.5
2022-10-10T02:10:02.850Z,9.4
2022-10-10T03:23:50.669Z,9.1
2022-10-10T03:30:05.834Z,9.1
2022-10-10T03:54:13.940Z,9.3
2022-10-10T04:06:23.781Z,9.1
2022-10-10T04:12:23.904Z,8.9
2022-10-10T04:30:30.588Z,9
2022-10-10T04:36:22.206Z,8.9
2022-10-10T04:42:20.659Z,8.8
2022-10-10T04:48:12.337Z,8.9
2022-10-10T04:54:10.923Z,8.9
2022-10-10T05:00:06.032Z,8.9
2022-10-10T05:06:05.267Z,8.8
2022-10-10T05:12:05.664Z,8.8
2022-10-10T05:18:11.130Z,8.8
2022-10-10T05:36:41.346Z,8.9
2022-10-10T05:42:50.236Z,8.8
2022-10-10T05:56:05.502Z,8.8
2022-10-10T06:08:11.466Z,8.8
2022-10-10T06:14:03.615Z,8.8
2022-10-10T06:20:01.649Z,8.9
2022-10-10T06:25:54.660Z,8.8
2022-10-10T06:37:50.513Z,8.9
2022-10-10T06:43:55.313Z,9
2022-10-10T06:49:50.740Z,9.1
2022-10-10T06:55:40.961Z,9.1
2022-10-10T07:01:48.233Z,9.2
2022-10-10T07:07:47.993Z,9.4
2022-10-10T07:13:44.293Z,9.5
2022-10-10T07:19:44.162Z,9.5
2022-10-10T07:31:54.077Z,9.8
2022-10-10T07:37:46.482Z,10
2022-10-10T07:43:40.917Z,10.3
2022-10-10T07:49:37.474Z,10.5
2022-10-10T07:56:08.172Z,10.7
2022-10-10T08:01:59.124Z,11.1
2022-10-10T08:07:49.918Z,11.2
2022-10-10T08:13:41.322Z,11.6
2022-10-10T08:19:30.756Z,11.8
2022-10-10T08:25:19.619Z,11.8
2022-10-10T08:31:09.120Z,11.9
2022-10-10T08:36:59.030Z,12.1
2022-10-10T08:42:52.631Z,12.2
2022-10-10T08:48:43.922Z,12.3
2022-10-10T08:54:33.976Z,12.5
2022-10-10T09:00:23.425Z,12.6
2022-10-10T09:06:12.660Z,12.8
2022-10-10T09:12:02.112Z,12.9
2022-10-10T09:17:51.742Z,12.9
2022-10-10T09:23:40.082Z,12.9
2022-10-10T09:29:29.761Z,13
2022-10-10T09:35:18.551Z,13.1
2022-10-10T09:41:11.028Z,13.2
2022-10-10T09:47:02.304Z,13.3
2022-10-10T09:52:52.654Z,13.4
2022-10-10T09:58:43.707Z,13.5
2022-10-10T10:04:34.681Z,13.7
2022-10-10T10:10:25.521Z,13.9
2022-10-10T10:16:15.847Z,14.2
2022-10-10T10:22:06.985Z,14.5
2022-10-10T10:28:02.569Z,14.9
2022-10-10T10:33:54.666Z,15
2022-10-10T10:39:43.774Z,15.3
2022-10-10T10:45:34.619Z,15.6
2022-10-10T10:51:27.147Z,15.7
2022-10-10T10:57:40.747Z,15.9
2022-10-10T11:06:08.668Z,16.2
2022-10-10T11:12:03.549Z,16.3
2022-10-10T11:17:54.240Z,16.5
2022-10-10T11:23:43.790Z,16.8
2022-10-10T11:29:33.283Z,16.7
2022-10-10T11:35:22.989Z,16.8
2022-10-10T11:41:12.342Z,16.9
2022-10-10T11:47:01.692Z,17.2
2022-10-10T11:52:51.482Z,17.4
2022-10-10T11:58:41.952Z,17.6
2022-10-10T12:04:31.573Z,17.7
2022-10-10T12:10:21.946Z,18.1
2022-10-10T12:16:11.910Z,18.4
2022-10-10T12:22:01.608Z,18.4
2022-10-10T12:27:52.316Z,18.6
2022-10-10T12:33:42.756Z,18.8
2022-10-10T12:39:32.519Z,18.8
2022-10-10T12:45:25.404Z,18.9
2022-10-10T12:51:16.726Z,18.8
2022-10-10T12:57:08.248Z,19
2022-10-10T13:03:00.747Z,18.9
2022-10-10T13:08:54.501Z,19.1
2022-10-10T13:14:45.792Z,19
2022-10-10T13:20:38.013Z,19
2022-10-10T13:26:29.167Z,19
2022-10-10T13:32:21.224Z,19.1
2022-10-10T13:38:12.606Z,19.1
2022-10-10T13:44:04.376Z,19.1
2022-10-10T13:49:55.976Z,19.1
2022-10-10T13:55:48.332Z,19.2
2022-10-10T14:08:04.999Z,19.3
2022-10-10T14:14:00.050Z,19.4
2022-10-10T14:19:52.532Z,19.5
2022-10-10T14:25:48.390Z,19.4
2022-10-10T14:31:39.387Z,19.7
2022-10-10T14:37:37.835Z,19.7
2022-10-10T14:43:32.836Z,19.7
2022-10-10T14:49:30.582Z,19.6
2022-10-10T14:55:22.875Z,19.4
2022-10-10T15:01:18.637Z,19.6
2022-10-10T15:07:13.227Z,19.6
2022-10-10T15:13:06.356Z,19.5
2022-10-10T15:18:55.413Z,19.6
2022-10-10T15:24:49.859Z,19.5
2022-10-10T15:30:45.391Z,19.3
2022-10-10T15:36:40.171Z,19.3
2022-10-10T15:42:31.061Z,19
2022-10-10T15:48:27.656Z,19
2022-10-10T15:54:21.233Z,18.8
2022-10-10T16:00:13.002Z,18.5
2022-10-10T16:06:05.798Z,18.4
2022-10-10T16:11:58.710Z,18.3
2022-10-10T16:23:59.480Z,18
2022-10-10T16:29:50.190Z,17.9
2022-10-10T16:42:12.220Z,17.7
2022-10-10T16:48:05.799Z,17.7
2022-10-10T16:54:01.608Z,17.6
2022-10-10T16:59:58.102Z,17.4
2022-10-10T17:05:49.860Z,17.4
2022-10-10T17:11:51.145Z,17.2
2022-10-10T17:17:45.633Z,17.3
2022-10-10T17:23:36.600Z,17.1
2022-10-10T17:29:30.841Z,17.1
2022-10-10T17:35:29.299Z,17.1
2022-10-10T17:41:19.915Z,17
2022-10-10T17:47:11.743Z,17
2022-10-10T17:53:05.734Z,16.9
2022-10-10T17:59:09.537Z,16.8
2022-10-10T18:05:00.160Z,16.8
2022-10-10T18:10:52.018Z,16.7
2022-10-10T18:16:45.863Z,16.6
2022-10-10T18:22:44.907Z,16.6
2022-10-10T18:28:35.975Z,16.5
2022-10-10T18:34:27.469Z,16.4
2022-10-10T18:40:19.855Z,16.4
2022-10-10T18:46:13.066Z,16.3
2022-10-10T18:52:05.394Z,16.3
2022-10-10T18:57:57.819Z,16.2
2022-10-10T19:03:47.218Z,16.2
2022-10-10T19:09:37.910Z,16.1
2022-10-10T19:15:28.819Z,16
2022-10-10T19:21:25.075Z,15.9
2022-10-10T19:27:16.453Z,15.8
2022-10-10T19:33:08.909Z,15.6
2022-10-10T19:39:01.131Z,15.6
2022-10-10T19:44:53.393Z,15.5
2022-10-10T19:50:45.940Z,15.5
2022-10-10T19:56:43.155Z,15.5
2022-10-10T20:02:46.697Z,15.3
2022-10-10T20:08:39.333Z,15.2
2022-10-10T20:14:29.540Z,15
2022-10-10T20:20:20.968Z,14.9
2022-10-10T20:26:12.022Z,14.7
2022-10-10T20:32:02.307Z,14.6
2022-10-10T20:37:53.581Z,14.4
2022-10-10T20:43:48.933Z,14.2
2022-10-10T20:50:00.201Z,14.2
2022-10-10T20:55:53.150Z,14
2022-10-10T21:01:46.573Z,13.9
2022-10-10T21:07:49.205Z,13.7
2022-10-10T21:13:46.835Z,13.6
2022-10-10T21:19:49.384Z,13.6
2022-10-10T21:25:59.102Z,13.5
2022-10-10T21:31:56.599Z,13.5
2022-10-10T21:37:53.513Z,13.4
2022-10-10T21:43:49.998Z,13.4
2022-10-10T21:49:42.475Z,13.4
2022-10-10T22:13:42.413Z,13.2
